Time;durP1;ratioP1;P1;durP2;ratioP2;P2;SDS_P1;SDS_P2;PMS_P1;PMS_P2;Temp;Humidity;BMP_temperature;BMP_pressure;BME280_temperature;BME280_humidity;BME280_pressure;Samples;Min_cycle;Max_cycle;Signal;HPM_P1;HPM_P2
2023/01/25 00:00:15;;;;;;;6.80;4.30;;;;;;;;;;5035844;28;20025;-70
2023/01/25 00:02:40;;;;;;;13.20;5.25;;;;;;;;;;5035727;28;20469;-69
2023/01/25 00:05:06;;;;;;;18.45;7.65;;;;;;;;;;5035211;28;20052;-69
2023/01/25 00:07:31;;;;;;;18.75;8.25;;;;;;;;;;5035529;28;20044;-69
2023/01/25 00:09:57;;;;;;;11.70;5.68;;;;;;;;;;5035640;28;20028;-69
2023/01/25 00:12:22;;;;;;;9.02;4.15;;;;;;;;;;5035458;28;20513;-69
2023/01/25 00:14:48;;;;;;;7.13;4.10;;;;;;;;;;5035468;28;20021;-69
2023/01/25 00:17:13;;;;;;;9.43;4.47;;;;;;;;;;5035414;28;20056;-69
2023/01/25 00:19:39;;;;;;;5.97;4.20;;;;;;;;;;5028807;28;20088;-70
2023/01/25 00:22:04;;;;;;;5.97;3.75;;;;;;;;;;5024726;28;20084;-70
2023/01/25 00:24:30;;;;;;;14.52;6.10;;;;;;;;;;5026738;28;20027;-68
2023/01/25 00:26:55;;;;;;;6.57;4.00;;;;;;;;;;5025450;28;20386;-69
2023/01/25 00:29:20;;;;;;;7.60;4.22;;;;;;;;;;5025208;28;20400;-69
2023/01/25 00:31:58;;;;;;;9.05;4.30;;;;;;;;;;5026904;28;20109;-69
2023/01/25 00:34:23;;;;;;;7.65;4.13;;;;;;;;;;5026367;28;20128;-69
2023/01/25 00:36:50;;;;;;;7.90;4.25;;;;;;;;;;5024408;28;20108;-70
2023/01/25 00:39:15;;;;;;;28.00;9.35;;;;;;;;;;5035003;28;20030;-70
2023/01/25 00:41:42;;;;;;;16.92;6.18;;;;;;;;;;5035123;28;20029;-70
2023/01/25 00:44:07;;;;;;;10.30;5.50;;;;;;;;;;5035287;28;20029;-70
2023/01/25 00:46:33;;;;;;;8.45;5.18;;;;;;;;;;5035171;28;20422;-70
2023/01/25 00:48:58;;;;;;;11.20;5.88;;;;;;;;;;5034886;28;20118;-70
2023/01/25 00:51:24;;;;;;;7.63;4.40;;;;;;;;;;5034845;28;20032;-70
2023/01/25 00:53:50;;;;;;;6.05;3.53;;;;;;;;;;5034422;28;20013;-71
2023/01/25 00:56:15;;;;;;;5.65;3.80;;;;;;;;;;5035038;28;20512;-69
2023/01/25 00:58:41;;;;;;;8.48;4.40;;;;;;;;;;5035062;28;20029;-70
2023/01/25 01:01:06;;;;;;;11.13;5.50;;;;;;;;;;5034771;28;20025;-70
2023/01/25 01:03:32;;;;;;;10.90;5.60;;;;;;;;;;5034251;28;20402;-70
2023/01/25 01:06:09;;;;;;;9.98;4.50;;;;;;;;;;5034972;28;20040;-69
2023/01/25 01:08:38;;;;;;;7.22;4.60;;;;;;;;;;5034760;28;20025;-70
2023/01/25 01:11:07;;;;;;;5.75;4.22;;;;;;;;;;5034695;28;20025;-70
2023/01/25 01:13:33;;;;;;;6.90;4.53;;;;;;;;;;5034583;28;20033;-70
2023/01/25 01:16:01;;;;;;;8.10;4.55;;;;;;;;;;5034700;28;20083;-69
2023/01/25 01:18:27;;;;;;;8.15;4.93;;;;;;;;;;5034270;28;20382;-70
2023/01/25 01:20:53;;;;;;;6.65;4.85;;;;;;;;;;5034553;28;20032;-70
2023/01/25 01:23:19;;;;;;;7.43;4.88;;;;;;;;;;5034382;28;20057;-70
2023/01/25 01:25:45;;;;;;;9.52;5.90;;;;;;;;;;5034351;28;20025;-70
2023/01/25 01:28:11;;;;;;;7.97;4.70;;;;;;;;;;5034370;28;20044;-70
2023/01/25 01:30:37;;;;;;;10.38;5.88;;;;;;;;;;5034310;28;20385;-70
2023/01/25 01:33:02;;;;;;;11.10;5.90;;;;;;;;;;5033985;28;20359;-70
2023/01/25 01:35:28;;;;;;;8.80;5.32;;;;;;;;;;5034147;28;20501;-70
2023/01/25 01:37:54;;;;;;;7.22;4.18;;;;;;;;;;5033907;28;20040;-72
2023/01/25 01:40:20;;;;;;;7.22;4.20;;;;;;;;;;5034024;28;20017;-70
2023/01/25 01:43:03;;;;;;;6.20;4.70;;;;;;;;;;5034178;28;20026;-70
2023/01/25 01:45:46;;;;;;;8.32;4.57;;;;;;;;;;5033913;28;20044;-70
2023/01/25 01:48:34;;;;;;;7.95;4.60;;;;;;;;;;5033889;28;20033;-70
2023/01/25 01:51:07;;;;;;;7.57;4.50;;;;;;;;;;5033883;28;20033;-71
2023/01/25 01:53:33;;;;;;;7.10;4.57;;;;;;;;;;5033765;28;20033;-71
2023/01/25 01:56:03;;;;;;;6.90;3.60;;;;;;;;;;5033903;28;20025;-70
2023/01/25 01:58:30;;;;;;;6.90;4.50;;;;;;;;;;5033872;28;20040;-69
2023/01/25 02:00:56;;;;;;;8.48;4.47;;;;;;;;;;5033708;28;20055;-70
2023/01/25 02:03:22;;;;;;;5.63;3.85;;;;;;;;;;5014816;28;20175;-70
2023/01/25 02:05:55;;;;;;;6.22;3.83;;;;;;;;;;5033089;28;20045;-71
2023/01/25 02:08:22;;;;;;;5.50;3.50;;;;;;;;;;5033617;28;20061;-70
2023/01/25 02:10:48;;;;;;;6.88;4.38;;;;;;;;;;5033641;28;20185;-69
2023/01/25 02:13:15;;;;;;;6.00;3.90;;;;;;;;;;5033405;28;20473;-70
2023/01/25 02:15:45;;;;;;;6.82;3.78;;;;;;;;;;5033287;28;20025;-70
2023/01/25 02:18:11;;;;;;;7.40;4.70;;;;;;;;;;5033412;28;20036;-70
2023/01/25 02:20:36;;;;;;;6.72;3.78;;;;;;;;;;5033461;28;20029;-70
2023/01/25 02:23:24;;;;;;;7.10;4.10;;;;;;;;;;5033244;28;20025;-70
2023/01/25 02:25:50;;;;;;;6.82;3.88;;;;;;;;;;5032964;28;20035;-70
2023/01/25 02:28:37;;;;;;;6.38;3.55;;;;;;;;;;5032808;28;20524;-70
2023/01/25 02:31:02;;;;;;;7.30;3.05;;;;;;;;;;5032361;28;20025;-70
2023/01/25 02:33:28;;;;;;;5.20;3.50;;;;;;;;;;5033156;28;20428;-71
2023/01/25 02:35:57;;;;;;;12.27;3.83;;;;;;;;;;5033156;28;20378;-70
2023/01/25 02:38:23;;;;;;;8.80;4.47;;;;;;;;;;5032931;28;20428;-69
2023/01/25 02:41:01;;;;;;;8.93;4.53;;;;;;;;;;5033024;28;20030;-69
2023/01/25 02:43:28;;;;;;;11.60;5.20;;;;;;;;;;5032998;28;20083;-70
2023/01/25 02:46:17;;;;;;;5.43;3.90;;;;;;;;;;5032718;28;20029;-69
2023/01/25 02:48:43;;;;;;;6.72;4.50;;;;;;;;;;5032887;28;20033;-70
2023/01/25 02:51:09;;;;;;;5.28;3.72;;;;;;;;;;5032761;28;20027;-70
2023/01/25 02:53:35;;;;;;;8.05;4.68;;;;;;;;;;5032814;28;20023;-70
2023/01/25 02:56:00;;;;;;;12.27;6.50;;;;;;;;;;5032930;28;20021;-70
2023/01/25 02:58:26;;;;;;;16.90;8.25;;;;;;;;;;5032833;28;20025;-70
2023/01/25 03:00:52;;;;;;;13.68;6.18;;;;;;;;;;5032567;28;20029;-70
2023/01/25 03:03:17;;;;;;;11.35;5.82;;;;;;;;;;5031961;28;20079;-70
2023/01/25 03:05:44;;;;;;;9.63;5.28;;;;;;;;;;5032566;28;20052;-70
2023/01/25 03:08:09;;;;;;;11.48;5.82;;;;;;;;;;5032548;28;20402;-70
2023/01/25 03:10:35;;;;;;;11.48;5.55;;;;;;;;;;5032642;28;20474;-70
2023/01/25 03:13:00;;;;;;;19.35;8.32;;;;;;;;;;5032634;28;20022;-69
2023/01/25 03:15:26;;;;;;;9.13;5.20;;;;;;;;;;5032271;28;20041;-70
2023/01/25 03:17:51;;;;;;;12.30;6.55;;;;;;;;;;5032616;28;20032;-71
2023/01/25 03:20:17;;;;;;;18.08;7.90;;;;;;;;;;5032721;28;20080;-70
2023/01/25 03:22:42;;;;;;;20.50;9.27;;;;;;;;;;5032602;28;20025;-69
2023/01/25 03:25:08;;;;;;;31.48;13.85;;;;;;;;;;5032406;28;20458;-69
2023/01/25 03:27:33;;;;;;;25.13;10.75;;;;;;;;;;5032220;28;20470;-70
2023/01/25 03:29:59;;;;;;;10.88;6.07;;;;;;;;;;5032373;28;20534;-70
2023/01/25 03:32:24;;;;;;;11.45;4.78;;;;;;;;;;5032344;28;20047;-70
2023/01/25 03:34:49;;;;;;;12.02;5.95;;;;;;;;;;5032425;28;20076;-70
2023/01/25 03:37:15;;;;;;;7.60;4.70;;;;;;;;;;5032305;28;20017;-70
2023/01/25 03:39:40;;;;;;;6.65;4.35;;;;;;;;;;5014317;28;20351;-70
2023/01/25 03:42:06;;;;;;;7.18;4.57;;;;;;;;;;5032464;28;20029;-69
2023/01/25 03:44:31;;;;;;;6.93;4.35;;;;;;;;;;5032045;28;20018;-70
2023/01/25 03:46:57;;;;;;;7.57;4.72;;;;;;;;;;5032295;28;20437;-70
2023/01/25 03:49:22;;;;;;;8.13;5.32;;;;;;;;;;5032285;28;20028;-69
2023/01/25 03:51:48;;;;;;;8.35;5.00;;;;;;;;;;5032113;28;20036;-69
2023/01/25 03:54:14;;;;;;;9.05;4.50;;;;;;;;;;5032122;28;20367;-69
2023/01/25 03:56:39;;;;;;;10.40;5.72;;;;;;;;;;5032224;28;20112;-70
2023/01/25 03:59:05;;;;;;;7.32;5.03;;;;;;;;;;5032134;28;20026;-70
2023/01/25 04:01:30;;;;;;;7.47;4.70;;;;;;;;;;5032000;28;20359;-70
2023/01/25 04:03:56;;;;;;;7.40;4.50;;;;;;;;;;5031508;28;20038;-70
2023/01/25 04:06:21;;;;;;;6.90;4.13;;;;;;;;;;5032147;28;20037;-70
2023/01/25 04:08:46;;;;;;;8.70;4.60;;;;;;;;;;5032145;28;20027;-70
2023/01/25 04:11:12;;;;;;;6.13;3.95;;;;;;;;;;5031900;28;20045;-70
2023/01/25 04:13:38;;;;;;;7.72;4.00;;;;;;;;;;5031732;28;20060;-70
2023/01/25 04:16:05;;;;;;;7.40;4.07;;;;;;;;;;5032022;28;20035;-70
2023/01/25 04:18:30;;;;;;;9.60;4.35;;;;;;;;;;5031992;28;20455;-70
2023/01/25 04:20:57;;;;;;;7.70;3.88;;;;;;;;;;5031980;28;20164;-70
2023/01/25 04:23:24;;;;;;;8.98;5.13;;;;;;;;;;5031923;28;20504;-70
2023/01/25 04:25:57;;;;;;;8.95;5.20;;;;;;;;;;5031902;28;20054;-70
2023/01/25 04:28:23;;;;;;;12.43;5.20;;;;;;;;;;5033900;28;20029;-71
2023/01/25 04:30:49;;;;;;;7.68;4.85;;;;;;;;;;5035539;28;20060;-70
2023/01/25 04:33:14;;;;;;;7.28;4.45;;;;;;;;;;5035303;28;20079;-69
2023/01/25 04:35:40;;;;;;;9.60;4.63;;;;;;;;;;5035328;28;20029;-69
2023/01/25 04:38:06;;;;;;;7.88;4.57;;;;;;;;;;5035316;28;20060;-70
2023/01/25 04:40:31;;;;;;;6.40;3.78;;;;;;;;;;5035232;28;20071;-70
2023/01/25 04:42:57;;;;;;;12.98;5.10;;;;;;;;;;5035074;28;20612;-69
2023/01/25 04:45:24;;;;;;;8.10;4.75;;;;;;;;;;5035183;28;20021;-70
2023/01/25 04:47:55;;;;;;;7.38;4.43;;;;;;;;;;5035060;28;20469;-70
2023/01/25 04:50:21;;;;;;;9.02;5.22;;;;;;;;;;5035156;28;20029;-70
2023/01/25 04:52:46;;;;;;;9.60;4.57;;;;;;;;;;5035007;28;20523;-69
2023/01/25 04:55:12;;;;;;;7.55;4.22;;;;;;;;;;5034616;28;20044;-71
2023/01/25 04:57:37;;;;;;;6.90;4.38;;;;;;;;;;5034825;28;20500;-70
2023/01/25 05:00:03;;;;;;;12.45;5.13;;;;;;;;;;5034930;28;20458;-68
2023/01/25 05:02:28;;;;;;;8.73;4.72;;;;;;;;;;5034769;28;20164;-69
2023/01/25 05:04:54;;;;;;;7.40;4.03;;;;;;;;;;5034447;28;20095;-70
2023/01/25 05:07:19;;;;;;;10.30;5.47;;;;;;;;;;5034589;28;20029;-70
2023/01/25 05:09:44;;;;;;;12.27;5.63;;;;;;;;;;5034475;28;20033;-70
2023/01/25 05:12:12;;;;;;;9.68;4.95;;;;;;;;;;5034768;28;20026;-70
2023/01/25 05:14:38;;;;;;;8.85;4.80;;;;;;;;;;5034607;28;20079;-70
2023/01/25 05:17:07;;;;;;;7.88;3.78;;;;;;;;;;5034485;28;20037;-69
2023/01/25 05:19:33;;;;;;;9.02;4.50;;;;;;;;;;5034196;28;20026;-69
2023/01/25 05:22:06;;;;;;;9.38;4.72;;;;;;;;;;5034546;28;20064;-70
2023/01/25 05:24:33;;;;;;;10.88;4.75;;;;;;;;;;5034291;28;20040;-69
2023/01/25 05:26:59;;;;;;;7.20;4.60;;;;;;;;;;5034150;28;20053;-70
2023/01/25 05:29:28;;;;;;;10.50;5.40;;;;;;;;;;5034395;28;20025;-70
2023/01/25 05:31:54;;;;;;;8.93;5.00;;;;;;;;;;5034325;28;20393;-70
2023/01/25 05:34:19;;;;;;;9.88;5.40;;;;;;;;;;5034307;28;20100;-69
2023/01/25 05:36:44;;;;;;;12.25;6.28;;;;;;;;;;5034285;28;20037;-69
2023/01/25 05:39:10;;;;;;;11.23;5.13;;;;;;;;;;5033735;28;20036;-69
2023/01/25 05:41:35;;;;;;;11.73;5.82;;;;;;;;;;5033938;28;20056;-70
2023/01/25 05:44:01;;;;;;;8.57;4.75;;;;;;;;;;5034222;28;20022;-70
2023/01/25 05:46:27;;;;;;;10.63;5.25;;;;;;;;;;5034037;28;20458;-70
2023/01/25 05:48:52;;;;;;;8.77;5.30;;;;;;;;;;5033750;28;20070;-70
2023/01/25 05:51:18;;;;;;;10.23;5.60;;;;;;;;;;5033905;28;20429;-70
2023/01/25 05:53:43;;;;;;;9.02;5.50;;;;;;;;;;5033601;28;20026;-70
2023/01/25 05:56:09;;;;;;;11.75;5.15;;;;;;;;;;5033944;28;20076;-70
2023/01/25 05:58:35;;;;;;;10.02;4.97;;;;;;;;;;5033669;28;20018;-70
2023/01/25 06:01:02;;;;;;;12.82;6.43;;;;;;;;;;5033844;28;20024;-70
2023/01/25 06:03:27;;;;;;;9.07;5.35;;;;;;;;;;5033280;28;20501;-70
2023/01/25 06:05:57;;;;;;;10.38;6.15;;;;;;;;;;5033494;28;20048;-70
2023/01/25 06:08:23;;;;;;;12.43;5.68;;;;;;;;;;5033278;28;20083;-70
2023/01/25 06:10:49;;;;;;;9.35;5.45;;;;;;;;;;5033666;28;20033;-70
2023/01/25 06:13:15;;;;;;;11.98;6.72;;;;;;;;;;5033176;28;20029;-70
2023/01/25 06:15:40;;;;;;;7.90;4.78;;;;;;;;;;5015740;28;20083;-70
2023/01/25 06:18:05;;;;;;;9.32;5.07;;;;;;;;;;5033425;28;20385;-70
2023/01/25 06:20:31;;;;;;;9.85;6.03;;;;;;;;;;5033332;28;20030;-70
2023/01/25 06:22:56;;;;;;;10.43;5.28;;;;;;;;;;5033059;28;20041;-71
2023/01/25 06:25:22;;;;;;;9.98;5.70;;;;;;;;;;5032998;28;20025;-71
2023/01/25 06:27:47;;;;;;;8.75;4.28;;;;;;;;;;5032831;28;20441;-70
2023/01/25 06:30:13;;;;;;;7.43;4.63;;;;;;;;;;5033162;28;20525;-70
2023/01/25 06:32:38;;;;;;;12.15;5.10;;;;;;;;;;5033282;28;20032;-70
2023/01/25 06:35:04;;;;;;;8.90;5.10;;;;;;;;;;5033060;28;20030;-69
2023/01/25 06:37:29;;;;;;;9.55;5.32;;;;;;;;;;5032675;28;20045;-69
2023/01/25 06:39:55;;;;;;;12.80;5.43;;;;;;;;;;5033016;28;20606;-69
2023/01/25 06:42:23;;;;;;;9.20;5.57;;;;;;;;;;5032821;28;20032;-69
2023/01/25 06:44:48;;;;;;;8.40;4.10;;;;;;;;;;5032676;28;20017;-68
2023/01/25 06:47:14;;;;;;;20.52;6.10;;;;;;;;;;5032716;28;20025;-69
2023/01/25 06:49:39;;;;;;;8.90;5.10;;;;;;;;;;5032366;28;20046;-69
2023/01/25 06:52:05;;;;;;;32.80;15.07;;;;;;;;;;5032527;28;20030;-69
2023/01/25 06:54:30;;;;;;;14.95;7.15;;;;;;;;;;5032730;28;20354;-69
2023/01/25 06:56:56;;;;;;;19.40;6.40;;;;;;;;;;5032608;28;20084;-69
2023/01/25 06:59:21;;;;;;;10.82;5.57;;;;;;;;;;5032708;28;20056;-69
2023/01/25 07:01:46;;;;;;;12.50;5.68;;;;;;;;;;5032477;28;20535;-68
2023/01/25 07:04:12;;;;;;;9.80;4.85;;;;;;;;;;5032319;28;20076;-69
2023/01/25 07:06:38;;;;;;;10.00;5.38;;;;;;;;;;5032162;28;20029;-69
2023/01/25 07:09:08;;;;;;;8.88;5.00;;;;;;;;;;5032307;28;20128;-69
2023/01/25 07:11:34;;;;;;;;;;;;;;;;;;5033055;28;20027;-69
2023/01/25 07:13:59;;;;;;;10.80;4.90;;;;;;;;;;5032567;28;20280;-69
2023/01/25 07:16:25;;;;;;;14.27;5.80;;;;;;;;;;5032615;28;20022;-69
2023/01/25 07:18:51;;;;;;;13.32;5.43;;;;;;;;;;5032519;28;20049;-69
2023/01/25 07:21:21;;;;;;;9.50;4.88;;;;;;;;;;5032088;28;20025;-69
2023/01/25 07:23:48;;;;;;;9.65;5.10;;;;;;;;;;5032417;28;20037;-69
2023/01/25 07:26:15;;;;;;;14.60;5.90;;;;;;;;;;5032205;28;20032;-69
2023/01/25 07:28:41;;;;;;;18.60;7.88;;;;;;;;;;5032384;28;20025;-69
2023/01/25 07:31:07;;;;;;;15.23;6.50;;;;;;;;;;5032403;28;20053;-68
2023/01/25 07:33:33;;;;;;;12.35;5.20;;;;;;;;;;5032329;28;20129;-68
2023/01/25 07:36:03;;;;;;;10.98;5.38;;;;;;;;;;5032386;28;20087;-68
2023/01/25 07:38:29;;;;;;;;;;;;;;;;;;5014995;28;20080;-68
2023/01/25 07:40:55;;;;;;;14.18;5.60;;;;;;;;;;5025042;28;19917;-69
2023/01/25 07:43:20;;;;;;;13.73;6.50;;;;;;;;;;5021622;28;20094;-68
2023/01/25 07:45:48;;;;;;;11.15;5.05;;;;;;;;;;5025926;28;20044;-68
2023/01/25 07:48:16;;;;;;;10.30;5.40;;;;;;;;;;5022544;28;20033;-69
2023/01/25 07:50:41;;;;;;;11.52;5.68;;;;;;;;;;5024359;28;20077;-69
2023/01/25 07:53:07;;;;;;;14.45;5.50;;;;;;;;;;5023190;28;20436;-68
2023/01/25 07:55:33;;;;;;;11.98;5.70;;;;;;;;;;5025878;28;20039;-68
2023/01/25 07:57:59;;;;;;;9.40;5.35;;;;;;;;;;5026022;28;20033;-69
2023/01/25 08:00:25;;;;;;;11.38;6.00;;;;;;;;;;5023554;28;20277;-68
2023/01/25 08:02:51;;;;;;;12.30;5.68;;;;;;;;;;5028394;28;20029;-69
2023/01/25 08:05:17;;;;;;;10.35;4.63;;;;;;;;;;5028929;28;20037;-68
2023/01/25 08:07:42;;;;;;;12.25;5.65;;;;;;;;;;5024187;28;20466;-68
2023/01/25 08:10:08;;;;;;;10.90;5.47;;;;;;;;;;5026059;28;20466;-68
2023/01/25 08:12:34;;;;;;;17.63;6.65;;;;;;;;;;5031755;28;20432;-69
2023/01/25 08:15:00;;;;;;;10.52;4.72;;;;;;;;;;5035378;28;20128;-69
2023/01/25 08:17:31;;;;;;;19.40;8.23;;;;;;;;;;5035643;28;20155;-69
2023/01/25 08:20:00;;;;;;;9.35;4.45;;;;;;;;;;5035459;28;20123;-69
2023/01/25 08:22:26;;;;;;;15.43;6.68;;;;;;;;;;5035675;28;20026;-70
2023/01/25 08:24:51;;;;;;;12.05;5.68;;;;;;;;;;5035598;28;20036;-69
2023/01/25 08:27:17;;;;;;;13.15;6.38;;;;;;;;;;5035008;28;20029;-68
2023/01/25 08:29:42;;;;;;;16.17;5.25;;;;;;;;;;5035352;28;20029;-69
2023/01/25 08:32:07;;;;;;;10.75;4.90;;;;;;;;;;5035543;28;20029;-70
2023/01/25 08:34:33;;;;;;;9.45;5.50;;;;;;;;;;5035066;28;20385;-70
2023/01/25 08:36:59;;;;;;;13.57;5.28;;;;;;;;;;5035306;28;20438;-68
2023/01/25 08:39:25;;;;;;;8.35;4.97;;;;;;;;;;5033769;28;20025;-69
2023/01/25 08:41:50;;;;;;;12.32;5.03;;;;;;;;;;5035490;28;20092;-70
2023/01/25 08:44:21;;;;;;;12.88;5.05;;;;;;;;;;5030111;28;20471;-69
2023/01/25 08:46:47;;;;;;;7.53;4.78;;;;;;;;;;5025828;28;20061;-69
2023/01/25 08:49:12;;;;;;;9.73;5.85;;;;;;;;;;5027145;28;20069;-69
2023/01/25 08:51:38;;;;;;;11.60;5.60;;;;;;;;;;5022660;28;20033;-70
2023/01/25 08:54:05;;;;;;;9.90;5.57;;;;;;;;;;5029677;28;20029;-69
2023/01/25 08:56:30;;;;;;;19.80;6.82;;;;;;;;;;5032879;28;20057;-69
2023/01/25 08:58:56;;;;;;;14.98;6.38;;;;;;;;;;5034941;28;20530;-69
2023/01/25 09:01:21;;;;;;;16.92;6.90;;;;;;;;;;5034722;28;20520;-69
2023/01/25 09:03:49;;;;;;;32.03;9.65;;;;;;;;;;5033925;28;20488;-69
2023/01/25 09:06:15;;;;;;;21.63;6.82;;;;;;;;;;5034451;28;20030;-69
2023/01/25 09:08:41;;;;;;;10.23;5.07;;;;;;;;;;5034732;28;20124;-70
2023/01/25 09:11:18;;;;;;;10.73;5.38;;;;;;;;;;5034614;28;20148;-70
2023/01/25 09:13:44;;;;;;;9.88;5.05;;;;;;;;;;5033836;28;20029;-69
2023/01/25 09:16:15;;;;;;;11.95;5.78;;;;;;;;;;5034350;28;20104;-68
2023/01/25 09:18:42;;;;;;;11.98;6.47;;;;;;;;;;5034601;28;20025;-70
2023/01/25 09:21:10;;;;;;;9.30;5.28;;;;;;;;;;5034468;28;20037;-70
2023/01/25 09:23:37;;;;;;;8.82;5.32;;;;;;;;;;5034361;28;20104;-69
2023/01/25 09:26:03;;;;;;;10.38;5.45;;;;;;;;;;5034381;28;20108;-69
2023/01/25 09:28:32;;;;;;;12.40;5.82;;;;;;;;;;5033859;28;20026;-70
2023/01/25 09:30:59;;;;;;;11.63;6.35;;;;;;;;;;5034094;28;20033;-70
2023/01/25 09:33:30;;;;;;;12.27;6.38;;;;;;;;;;5034129;28;20033;-70
2023/01/25 09:35:56;;;;;;;11.75;6.82;;;;;;;;;;5033916;28;20115;-69
2023/01/25 09:38:22;;;;;;;11.85;6.38;;;;;;;;;;5034169;28;20109;-69
2023/01/25 09:41:06;;;;;;;10.63;5.47;;;;;;;;;;5034113;28;20026;-68
2023/01/25 09:44:05;;;;;;;11.55;6.57;;;;;;;;;;5033540;28;20032;-70
2023/01/25 09:47:03;;;;;;;11.40;4.53;;;;;;;;;;5033613;28;20033;-69
2023/01/25 09:49:58;;;;;;;9.27;5.10;;;;;;;;;;5030943;28;20046;-68
2023/01/25 09:52:55;;;;;;;9.95;5.18;;;;;;;;;;5033943;28;20105;-69
2023/01/25 09:55:24;;;;;;;11.02;5.53;;;;;;;;;;5033863;28;20037;-68
2023/01/25 09:57:52;;;;;;;14.57;6.47;;;;;;;;;;5033714;28;20107;-69
2023/01/25 10:00:30;;;;;;;25.35;8.60;;;;;;;;;;5016110;28;20488;-68
2023/01/25 10:03:19;;;;;;;13.43;7.53;;;;;;;;;;5033689;28;20394;-69
2023/01/25 10:05:48;;;;;;;11.05;5.82;;;;;;;;;;5011751;28;20037;-70
2023/01/25 10:08:43;;;;;;;22.13;7.00;;;;;;;;;;5027137;28;20029;-69
2023/01/25 10:11:25;;;;;;;12.15;4.93;;;;;;;;;;5033629;28;20065;-69
2023/01/25 10:13:54;;;;;;;11.48;5.85;;;;;;;;;;5032911;28;20053;-69
2023/01/25 10:16:29;;;;;;;13.15;6.10;;;;;;;;;;5033180;28;20080;-69
2023/01/25 10:19:24;;;;;;;8.38;4.63;;;;;;;;;;5033520;28;20021;-70
2023/01/25 10:21:59;;;;;;;10.55;5.57;;;;;;;;;;5033407;28;20065;-69
2023/01/25 10:24:31;;;;;;;11.80;5.70;;;;;;;;;;5032978;28;20021;-69
2023/01/25 10:27:08;;;;;;;16.52;6.95;;;;;;;;;;5033026;28;20033;-69
2023/01/25 10:29:36;;;;;;;11.90;6.07;;;;;;;;;;5032430;28;20477;-69
2023/01/25 10:32:16;;;;;;;12.13;5.63;;;;;;;;;;5032880;28;20464;-69
2023/01/25 10:34:49;;;;;;;10.45;5.60;;;;;;;;;;5033194;28;20021;-69
2023/01/25 10:37:21;;;;;;;11.50;5.28;;;;;;;;;;5033193;28;20026;-69
2023/01/25 10:40:22;;;;;;;10.23;5.93;;;;;;;;;;5033028;28;20093;-70
2023/01/25 10:42:59;;;;;;;10.63;6.22;;;;;;;;;;5019092;28;20050;-68
2023/01/25 10:45:25;;;;;;;12.43;5.65;;;;;;;;;;5030308;28;20021;-70
2023/01/25 10:48:11;;;;;;;13.27;6.45;;;;;;;;;;5013024;28;20382;-69
2023/01/25 10:50:45;;;;;;;13.15;5.68;;;;;;;;;;5023277;28;20033;-70
2023/01/25 10:53:33;;;;;;;11.68;5.78;;;;;;;;;;5031152;28;20102;-70
2023/01/25 10:55:59;;;;;;;13.85;6.05;;;;;;;;;;5032718;28;20025;-70
2023/01/25 10:58:44;;;;;;;10.02;5.70;;;;;;;;;;5032454;28;20036;-70
2023/01/25 11:01:23;;;;;;;14.40;5.45;;;;;;;;;;5032313;28;20029;-70
2023/01/25 11:03:48;;;;;;;12.05;5.90;;;;;;;;;;5032280;28;20045;-70
2023/01/25 11:06:26;;;;;;;12.57;5.85;;;;;;;;;;5031729;28;20040;-70
2023/01/25 11:08:52;;;;;;;15.80;7.38;;;;;;;;;;5032224;28;20037;-70
2023/01/25 11:11:25;;;;;;;9.80;5.53;;;;;;;;;;5029093;28;20088;-70
2023/01/25 11:13:53;;;;;;;11.90;6.22;;;;;;;;;;5022238;28;20040;-70
2023/01/25 11:16:32;;;;;;;15.00;6.38;;;;;;;;;;5023236;28;20033;-70
2023/01/25 11:19:01;;;;;;;12.93;6.03;;;;;;;;;;5023070;28;20022;-71
2023/01/25 11:21:29;;;;;;;11.50;6.30;;;;;;;;;;5022578;28;20390;-71
2023/01/25 11:23:58;;;;;;;10.57;6.20;;;;;;;;;;5022165;28;20018;-71
2023/01/25 11:26:24;;;;;;;10.90;6.20;;;;;;;;;;5020938;28;20033;-70
2023/01/25 11:29:06;;;;;;;10.75;6.60;;;;;;;;;;5025069;28;20021;-70
2023/01/25 11:31:31;;;;;;;10.65;6.07;;;;;;;;;;5032037;28;20088;-70
2023/01/25 11:33:57;;;;;;;12.80;5.75;;;;;;;;;;5032240;28;20029;-71
2023/01/25 11:36:31;;;;;;;12.00;6.15;;;;;;;;;;5033407;28;20079;-70
2023/01/25 11:39:25;;;;;;;12.20;5.03;;;;;;;;;;5036559;28;20033;-71
2023/01/25 11:42:09;;;;;;;14.65;6.82;;;;;;;;;;5035879;28;20114;-70
2023/01/25 11:45:12;;;;;;;14.23;7.38;;;;;;;;;;5032016;28;20032;-70
2023/01/25 11:47:51;;;;;;;12.45;6.70;;;;;;;;;;5035960;28;20070;-70
2023/01/25 11:50:34;;;;;;;13.48;6.90;;;;;;;;;;5036096;28;20028;-70
2023/01/25 11:53:27;;;;;;;15.65;7.05;;;;;;;;;;5036263;28;20030;-71
2023/01/25 11:56:21;;;;;;;15.88;7.05;;;;;;;;;;5035985;28;20041;-70
2023/01/25 11:59:00;;;;;;;13.32;6.60;;;;;;;;;;5035940;28;20492;-70
2023/01/25 12:01:56;;;;;;;14.48;7.07;;;;;;;;;;5036149;28;20068;-70
2023/01/25 12:04:31;;;;;;;17.70;8.05;;;;;;;;;;5035519;28;20050;-70
2023/01/25 12:06:57;;;;;;;12.65;7.18;;;;;;;;;;5035887;28;20584;-70
2023/01/25 12:09:28;;;;;;;15.65;7.30;;;;;;;;;;5035617;28;20030;-70
2023/01/25 12:12:21;;;;;;;17.70;7.80;;;;;;;;;;5035585;28;20033;-70
2023/01/25 12:15:23;;;;;;;13.23;6.50;;;;;;;;;;5035948;28;20470;-70
2023/01/25 12:18:17;;;;;;;9.32;5.20;;;;;;;;;;5035573;28;20492;-68
2023/01/25 12:21:03;;;;;;;14.45;5.82;;;;;;;;;;5031096;28;20545;-68
2023/01/25 12:23:59;;;;;;;14.80;6.38;;;;;;;;;;5026331;28;20034;-69
2023/01/25 12:26:43;;;;;;;14.68;6.28;;;;;;;;;;5026477;28;20037;-69
2023/01/25 12:29:17;;;;;;;16.90;7.95;;;;;;;;;;5024951;28;20124;-69
2023/01/25 12:32:08;;;;;;;15.15;6.88;;;;;;;;;;5025005;28;20173;-69
2023/01/25 12:34:37;;;;;;;18.15;7.95;;;;;;;;;;5025760;28;20367;-70
2023/01/25 12:37:12;;;;;;;16.55;7.53;;;;;;;;;;5024977;28;20033;-70
2023/01/25 12:39:44;;;;;;;18.95;8.00;;;;;;;;;;5014706;28;20056;-69
2023/01/25 12:42:21;;;;;;;15.80;8.52;;;;;;;;;;5015268;28;20057;-70
2023/01/25 12:44:49;;;;;;;21.58;8.65;;;;;;;;;;5015422;28;20565;-69
2023/01/25 12:47:29;;;;;;;16.15;8.27;;;;;;;;;;5015174;28;20367;-69
2023/01/25 12:50:12;;;;;;;14.60;7.53;;;;;;;;;;5014967;28;20033;-70
2023/01/25 12:52:44;;;;;;;16.85;7.43;;;;;;;;;;4997564;28;20433;-68
2023/01/25 12:55:14;;;;;;;16.10;8.10;;;;;;;;;;5015035;28;20022;-68
2023/01/25 12:58:01;;;;;;;;;;;;;;;;;;5015312;28;20045;-70
2023/01/25 13:00:54;;;;;;;25.70;9.00;;;;;;;;;;5014808;28;20285;-70
2023/01/25 13:03:43;;;;;;;13.05;7.05;;;;;;;;;;5033957;28;20120;-70
2023/01/25 13:06:46;;;;;;;17.57;8.17;;;;;;;;;;5035022;28;20038;-70
2023/01/25 13:09:27;;;;;;;24.33;7.88;;;;;;;;;;5022083;28;20110;-70
2023/01/25 13:11:53;;;;;;;22.20;9.43;;;;;;;;;;5029087;28;20067;-70
2023/01/25 13:14:43;;;;;;;21.23;9.25;;;;;;;;;;5026220;28;20059;-70
2023/01/25 13:17:31;;;;;;;17.33;8.45;;;;;;;;;;5024192;28;20074;-70
2023/01/25 13:19:57;;;;;;;13.63;7.95;;;;;;;;;;5024410;28;20021;-70
2023/01/25 13:22:41;;;;;;;14.35;8.80;;;;;;;;;;5025878;28;20131;-70
2023/01/25 13:25:14;;;;;;;15.43;8.23;;;;;;;;;;5028211;28;20038;-71
2023/01/25 13:27:40;;;;;;;14.32;7.55;;;;;;;;;;5022500;28;20079;-70
2023/01/25 13:30:26;;;;;;;15.63;7.97;;;;;;;;;;5024245;28;20038;-70
2023/01/25 13:32:55;;;;;;;18.13;8.73;;;;;;;;;;5025448;28;20378;-71
2023/01/25 13:35:27;;;;;;;17.52;8.68;;;;;;;;;;5021753;28;20044;-69
2023/01/25 13:38:24;;;;;;;13.35;7.88;;;;;;;;;;5021663;28;20120;-70
2023/01/25 13:41:10;;;;;;;17.80;8.30;;;;;;;;;;5019545;28;20038;-70
2023/01/25 13:43:37;;;;;;;17.50;8.13;;;;;;;;;;5025458;28;20033;-70
2023/01/25 13:46:05;;;;;;;16.58;8.52;;;;;;;;;;5022562;28;20029;-70
2023/01/25 13:48:32;;;;;;;16.27;8.55;;;;;;;;;;5022414;28;20111;-70
2023/01/25 13:51:04;;;;;;;16.25;8.68;;;;;;;;;;5024144;28;20029;-70
2023/01/25 13:53:32;;;;;;;16.02;7.40;;;;;;;;;;5021831;28;20025;-71
2023/01/25 13:55:58;;;;;;;20.70;8.98;;;;;;;;;;5024635;28;20034;-70
2023/01/25 13:58:25;;;;;;;15.05;8.80;;;;;;;;;;5025040;28;20477;-71
2023/01/25 14:01:10;;;;;;;17.48;8.68;;;;;;;;;;5022790;28;20029;-70
2023/01/25 14:03:44;;;;;;;16.48;8.27;;;;;;;;;;5022486;28;20029;-70
2023/01/25 14:06:28;;;;;;;15.30;7.53;;;;;;;;;;5032701;28;20076;-70
2023/01/25 14:08:58;;;;;;;13.98;7.05;;;;;;;;;;5033403;28;20470;-70
2023/01/25 14:11:29;;;;;;;17.33;7.72;;;;;;;;;;5033545;28;20091;-70
2023/01/25 14:14:21;;;;;;;18.40;9.10;;;;;;;;;;5033297;28;20039;-71
2023/01/25 14:17:08;;;;;;;17.13;8.48;;;;;;;;;;4952895;29;20039;-70
2023/01/25 14:19:39;;;;;;;16.40;8.27;;;;;;;;;;4953147;29;20554;-70
2023/01/25 14:22:10;;;;;;;17.05;9.02;;;;;;;;;;4952195;29;20079;-70
2023/01/25 14:24:36;;;;;;;16.20;9.02;;;;;;;;;;4952983;29;20039;-71
2023/01/25 14:27:03;;;;;;;12.43;6.88;;;;;;;;;;4952995;29;20166;-70
2023/01/25 14:29:28;;;;;;;17.13;9.00;;;;;;;;;;4952875;29;20121;-70
2023/01/25 14:31:54;;;;;;;18.27;9.15;;;;;;;;;;4952771;29;20114;-70
2023/01/25 14:34:19;;;;;;;16.33;8.75;;;;;;;;;;4952565;29;20062;-70
2023/01/25 14:36:46;;;;;;;16.00;8.05;;;;;;;;;;4952641;29;20090;-70
2023/01/25 14:39:24;;;;;;;22.88;9.55;;;;;;;;;;4952873;29;20067;-70
2023/01/25 14:41:52;;;;;;;18.85;9.35;;;;;;;;;;4952707;29;20066;-69
2023/01/25 14:44:19;;;;;;;13.98;8.07;;;;;;;;;;4952678;29;20062;-71
2023/01/25 14:46:44;;;;;;;18.30;9.00;;;;;;;;;;4952465;29;20427;-70
2023/01/25 14:49:24;;;;;;;18.50;8.45;;;;;;;;;;4952501;29;20031;-70
2023/01/25 14:51:55;;;;;;;21.73;9.55;;;;;;;;;;4952029;29;20046;-70
2023/01/25 14:54:27;;;;;;;18.10;9.60;;;;;;;;;;5018515;28;20041;-69